createdAt,value
2019-05-18T00:00:40.306Z,15.40
2019-05-18T00:03:09.111Z,15.40
2019-05-18T00:05:37.770Z,15.40
2019-05-18T00:08:06.440Z,15.50
2019-05-18T00:10:34.995Z,15.50
2019-05-18T00:13:03.631Z,15.50
2019-05-18T00:15:32.291Z,15.60
2019-05-18T00:18:00.890Z,15.60
2019-05-18T00:20:29.523Z,15.40
2019-05-18T00:22:58.125Z,15.40
2019-05-18T00:25:26.790Z,15.40
2019-05-18T00:27:55.631Z,15.40
2019-05-18T00:30:24.215Z,15.30
2019-05-18T00:32:52.806Z,15.30
2019-05-18T00:35:21.551Z,15.20
2019-05-18T00:37:50.172Z,15.10
2019-05-18T00:40:19.009Z,15.10
2019-05-18T00:42:47.670Z,15.10
2019-05-18T00:45:17.651Z,15.10
2019-05-18T00:47:46.449Z,15.10
2019-05-18T00:50:15.470Z,15.10
2019-05-18T00:52:44.125Z,15.10
2019-05-18T00:55:13.254Z,15.10
2019-05-18T00:57:41.847Z,15.10
2019-05-18T01:00:12.847Z,15.10
2019-05-18T01:02:41.463Z,15.10
2019-05-18T01:05:10.496Z,15.10
2019-05-18T01:07:39.216Z,15.10
2019-05-18T01:10:08.623Z,15.10
2019-05-18T01:12:36.510Z,15.00
2019-05-18T01:15:07.671Z,14.90
2019-05-18T01:17:36.504Z,14.90
2019-05-18T01:20:07.282Z,14.80
2019-05-18T01:22:35.902Z,14.80
2019-05-18T01:25:05.240Z,14.80
2019-05-18T01:27:33.882Z,14.80
2019-05-18T01:30:02.595Z,14.80
2019-05-18T01:32:31.125Z,14.70
2019-05-18T01:34:59.696Z,14.80
2019-05-18T01:37:28.334Z,14.80
2019-05-18T01:39:56.933Z,14.80
2019-05-18T01:42:25.518Z,14.70
2019-05-18T01:44:54.141Z,14.70
2019-05-18T01:47:23.073Z,14.70
2019-05-18T01:49:51.840Z,14.70
2019-05-18T01:52:20.483Z,14.70
2019-05-18T01:54:49.159Z,14.70
2019-05-18T01:57:17.776Z,14.60
2019-05-18T01:59:46.362Z,14.70
2019-05-18T02:02:14.975Z,14.60
2019-05-18T02:04:43.583Z,14.60
2019-05-18T02:07:12.184Z,14.60
2019-05-18T02:09:40.751Z,14.60
2019-05-18T02:12:09.370Z,14.70
2019-05-18T02:14:37.921Z,14.60
2019-05-18T02:17:06.626Z,14.60
2019-05-18T02:19:35.219Z,14.60
2019-05-18T02:22:03.979Z,14.70
2019-05-18T02:24:32.569Z,14.60
2019-05-18T02:27:01.360Z,14.60
2019-05-18T02:29:29.933Z,14.50
2019-05-18T02:31:58.761Z,14.60
2019-05-18T02:34:27.387Z,14.60
2019-05-18T02:36:56.040Z,14.70
2019-05-18T02:39:25.438Z,14.70
2019-05-18T02:41:53.251Z,14.80
2019-05-18T02:44:22.010Z,14.90
2019-05-18T02:46:50.645Z,15.00
2019-05-18T02:49:19.455Z,15.10
2019-05-18T02:51:48.216Z,15.20
2019-05-18T02:54:16.767Z,15.30
2019-05-18T02:56:45.361Z,15.30
2019-05-18T02:59:13.983Z,15.30
2019-05-18T03:01:42.735Z,15.30
2019-05-18T03:04:11.365Z,15.30
2019-05-18T03:06:40.020Z,15.20
2019-05-18T03:09:08.871Z,15.30
2019-05-18T03:11:37.511Z,15.20
2019-05-18T03:14:06.142Z,15.10
2019-05-18T03:16:34.820Z,15.00
2019-05-18T03:19:07.963Z,14.90
2019-05-18T03:21:34.309Z,14.90
2019-05-18T03:24:02.994Z,15.00
2019-05-18T03:26:31.760Z,15.10
2019-05-18T03:29:00.376Z,15.30
2019-05-18T03:31:28.995Z,15.50
2019-05-18T03:33:57.549Z,15.60
2019-05-18T03:36:26.206Z,15.70
2019-05-18T03:38:54.814Z,15.70
2019-05-18T03:41:23.447Z,16.00
2019-05-18T03:43:52.214Z,16.40
2019-05-18T03:46:23.905Z,16.70
2019-05-18T03:48:51.160Z,16.70
2019-05-18T03:51:19.816Z,16.60
2019-05-18T03:53:48.419Z,16.70
2019-05-18T03:56:17.015Z,16.50
2019-05-18T03:58:45.635Z,16.50
2019-05-18T04:01:14.253Z,16.60
2019-05-18T04:03:42.771Z,16.50
2019-05-18T04:06:11.365Z,16.60
2019-05-18T04:08:40.032Z,16.70
2019-05-18T04:11:08.595Z,16.90
2019-05-18T04:13:37.166Z,17.40
2019-05-18T04:16:05.871Z,17.70
2019-05-18T04:18:34.458Z,17.30
2019-05-18T04:21:06.132Z,17.30
2019-05-18T04:23:34.864Z,17.20
2019-05-18T04:26:03.547Z,17.20
2019-05-18T04:28:32.110Z,17.20
2019-05-18T04:31:00.681Z,17.20
2019-05-18T04:33:29.312Z,17.10
2019-05-18T04:35:57.983Z,17.00
2019-05-18T04:38:26.594Z,17.20
2019-05-18T04:40:55.196Z,17.10
2019-05-18T04:43:23.752Z,17.20
2019-05-18T04:45:52.399Z,17.50
2019-05-18T04:48:20.964Z,17.90
2019-05-18T04:50:49.526Z,18.30
2019-05-18T04:53:18.218Z,18.10
2019-05-18T04:55:46.808Z,18.00
2019-05-18T04:58:15.359Z,18.20
2019-05-18T05:00:44.069Z,18.20
2019-05-18T05:03:12.650Z,18.70
2019-05-18T05:05:41.234Z,19.50
2019-05-18T05:08:09.889Z,20.40
2019-05-18T05:10:38.421Z,20.60
2019-05-18T05:13:06.986Z,20.20
2019-05-18T05:15:35.676Z,20.30
2019-05-18T05:18:04.342Z,20.00
2019-05-18T05:20:32.921Z,20.00
2019-05-18T05:23:01.526Z,19.80
2019-05-18T05:25:30.120Z,19.30
2019-05-18T05:27:58.693Z,20.00
2019-05-18T05:30:27.266Z,20.00
2019-05-18T05:32:55.878Z,20.40
2019-05-18T05:35:24.542Z,20.40
2019-05-18T05:37:53.162Z,22.00
2019-05-18T05:40:21.747Z,23.40
2019-05-18T05:42:50.346Z,24.30
2019-05-18T05:45:19.178Z,24.90
2019-05-18T05:47:47.738Z,25.80
2019-05-18T05:50:17.248Z,26.50
2019-05-18T05:52:45.948Z,25.40
2019-05-18T05:55:14.788Z,25.40
2019-05-18T05:57:43.381Z,25.40
2019-05-18T06:00:13.043Z,26.60
2019-05-18T06:02:41.703Z,27.00
2019-05-18T06:05:10.518Z,24.50
2019-05-18T06:07:39.145Z,23.50
2019-05-18T06:10:07.858Z,24.20
2019-05-18T06:12:36.435Z,22.90
2019-05-18T06:15:07.166Z,22.30
2019-05-18T06:17:35.755Z,22.10
2019-05-18T06:20:07.153Z,22.30
2019-05-18T06:22:35.818Z,21.30
2019-05-18T06:25:07.083Z,21.60
2019-05-18T06:27:35.753Z,21.00
2019-05-18T06:30:05.384Z,20.90
2019-05-18T06:32:33.905Z,20.90
2019-05-18T06:35:02.539Z,21.90
2019-05-18T06:37:31.138Z,22.70
2019-05-18T06:39:59.733Z,23.10
2019-05-18T06:42:28.342Z,24.00
2019-05-18T06:44:56.930Z,23.10
2019-05-18T06:47:25.525Z,24.80
2019-05-18T06:49:54.282Z,26.80
2019-05-18T06:52:22.931Z,26.20
2019-05-18T06:54:51.593Z,26.40
2019-05-18T06:57:21.025Z,27.00
2019-05-18T06:59:50.414Z,29.40
2019-05-18T07:02:18.999Z,28.10
2019-05-18T07:04:47.565Z,28.50
2019-05-18T07:07:16.160Z,29.40
2019-05-18T07:09:44.951Z,29.20
2019-05-18T07:12:13.619Z,29.20
2019-05-18T07:14:42.318Z,29.30
2019-05-18T07:17:11.106Z,26.80
2019-05-18T07:19:39.705Z,28.80
2019-05-18T07:22:08.316Z,27.60
2019-05-18T07:24:36.979Z,29.70
2019-05-18T07:27:05.787Z,29.10
2019-05-18T07:29:34.371Z,27.70
2019-05-18T07:32:03.116Z,24.90
2019-05-18T07:34:31.695Z,24.80
2019-05-18T07:37:00.353Z,26.10
2019-05-18T07:39:28.975Z,28.30
2019-05-18T07:41:57.702Z,29.80
2019-05-18T07:44:26.268Z,31.60
2019-05-18T07:46:54.909Z,31.30
2019-05-18T07:49:23.498Z,29.80
2019-05-18T07:51:52.103Z,31.40
2019-05-18T07:54:20.704Z,29.20
2019-05-18T07:56:49.285Z,29.40
2019-05-18T07:59:19.828Z,30.70
2019-05-18T08:01:48.122Z,30.80
2019-05-18T08:04:16.691Z,30.40
2019-05-18T08:06:45.326Z,31.00
2019-05-18T08:09:14.082Z,31.30
2019-05-18T08:11:42.950Z,31.80
2019-05-18T08:14:10.912Z,32.40
2019-05-18T08:16:39.519Z,30.30
2019-05-18T08:19:08.169Z,31.10
2019-05-18T08:21:51.893Z,31.60
2019-05-18T08:24:07.419Z,30.20
2019-05-18T08:26:36.011Z,30.70
2019-05-18T08:29:04.793Z,29.50
2019-05-18T08:31:33.556Z,28.70
2019-05-18T08:34:02.141Z,27.70
2019-05-18T08:36:30.746Z,28.20
2019-05-18T08:38:59.342Z,28.20
2019-05-18T08:41:27.906Z,30.20
2019-05-18T08:43:56.528Z,27.70
2019-05-18T08:46:26.047Z,27.70
2019-05-18T08:48:54.609Z,27.30
2019-05-18T08:51:23.245Z,27.40
2019-05-18T08:53:52.317Z,27.10
2019-05-18T08:56:20.150Z,28.20
2019-05-18T08:58:48.693Z,29.60
2019-05-18T09:01:17.267Z,29.90
2019-05-18T09:03:45.838Z,30.70
2019-05-18T09:06:14.512Z,32.80
2019-05-18T09:08:43.228Z,30.90
2019-05-18T09:11:11.787Z,31.30
2019-05-18T09:13:40.421Z,29.80
2019-05-18T09:16:09.050Z,30.30
2019-05-18T09:18:37.642Z,30.30
2019-05-18T09:21:06.265Z,27.70
2019-05-18T09:23:34.873Z,28.30
2019-05-18T09:26:03.466Z,30.50
2019-05-18T09:28:32.100Z,28.80
2019-05-18T09:31:00.671Z,28.80
2019-05-18T09:33:29.278Z,30.10
2019-05-18T09:35:57.971Z,28.70
2019-05-18T09:38:26.582Z,28.90
2019-05-18T09:40:55.245Z,31.70
2019-05-18T09:43:23.834Z,32.30
2019-05-18T09:45:52.435Z,32.70
2019-05-18T09:48:21.148Z,29.70
2019-05-18T09:50:49.809Z,29.60
2019-05-18T09:53:18.374Z,30.30
2019-05-18T09:55:47.046Z,29.70
2019-05-18T09:58:15.557Z,27.80
2019-05-18T10:00:44.217Z,28.00
2019-05-18T10:03:12.955Z,28.40
2019-05-18T10:05:41.638Z,28.50
2019-05-18T10:08:10.305Z,28.20
2019-05-18T10:10:38.970Z,28.30
2019-05-18T10:13:07.729Z,27.70
2019-05-18T10:15:36.420Z,27.50
2019-05-18T10:18:05.205Z,26.40
2019-05-18T10:20:33.793Z,27.20
2019-05-18T10:23:12.351Z,27.10
2019-05-18T10:25:32.648Z,27.00
2019-05-18T10:28:01.253Z,26.00
2019-05-18T10:30:29.878Z,26.10
2019-05-18T10:32:58.619Z,25.70
2019-05-18T10:35:27.279Z,26.00
2019-05-18T10:37:56.002Z,25.60
2019-05-18T10:40:24.674Z,25.80
2019-05-18T10:42:53.568Z,25.90
2019-05-18T10:45:22.403Z,25.60
2019-05-18T10:47:50.988Z,25.60
2019-05-18T10:50:19.688Z,25.70
2019-05-18T10:52:48.328Z,26.20
2019-05-18T10:55:17.267Z,25.80
2019-05-18T10:57:45.988Z,26.20
2019-05-18T11:00:15.068Z,26.20
2019-05-18T11:02:42.981Z,26.40
2019-05-18T11:05:12.026Z,26.50
2019-05-18T11:07:40.754Z,26.40
2019-05-18T11:10:10.444Z,26.00
2019-05-18T11:12:39.134Z,26.00
2019-05-18T11:15:10.352Z,26.00
2019-05-18T11:17:39.259Z,26.10
2019-05-18T11:20:10.182Z,26.30
2019-05-18T11:22:39.014Z,26.50
2019-05-18T11:25:08.390Z,26.10
2019-05-18T11:27:37.318Z,25.90
2019-05-18T11:30:07.343Z,26.20
2019-05-18T11:32:36.199Z,26.30
2019-05-18T11:35:06.710Z,26.30
2019-05-18T11:37:35.381Z,26.30
2019-05-18T11:40:06.622Z,26.30
2019-05-18T11:42:35.291Z,26.10
2019-05-18T11:45:12.142Z,26.20
2019-05-18T11:47:40.728Z,26.10
2019-05-18T11:50:10.649Z,25.80
2019-05-18T11:52:39.277Z,25.80
2019-05-18T11:55:09.007Z,25.90
2019-05-18T11:57:37.742Z,26.20
2019-05-18T12:00:09.411Z,26.20
2019-05-18T12:02:38.088Z,26.10
2019-05-18T12:05:07.592Z,25.80
2019-05-18T12:07:36.293Z,26.00
2019-05-18T12:10:09.774Z,26.10
2019-05-18T12:12:38.606Z,26.00
2019-05-18T12:15:09.646Z,26.00
2019-05-18T12:17:38.369Z,26.10
2019-05-18T12:20:08.411Z,25.90
2019-05-18T12:22:37.140Z,26.10
2019-05-18T12:25:06.983Z,26.10
2019-05-18T12:27:35.635Z,26.10
2019-05-18T12:30:07.431Z,26.00
2019-05-18T12:32:36.117Z,26.20
2019-05-18T12:35:06.786Z,26.00
2019-05-18T12:37:35.407Z,25.90
2019-05-18T12:40:05.492Z,26.00
2019-05-18T12:42:34.206Z,26.00
2019-05-18T12:45:02.895Z,26.00
2019-05-18T12:47:31.529Z,26.20
2019-05-18T12:50:00.259Z,26.20
2019-05-18T12:52:28.936Z,26.30
2019-05-18T12:54:57.492Z,25.80
2019-05-18T12:57:26.147Z,25.70
2019-05-18T12:59:54.815Z,26.00
2019-05-18T13:02:23.400Z,26.00
2019-05-18T13:04:51.967Z,26.20
2019-05-18T13:07:20.586Z,25.90
2019-05-18T13:09:49.562Z,26.10
2019-05-18T13:12:18.121Z,26.20
2019-05-18T13:14:46.746Z,26.10
2019-05-18T13:17:15.330Z,26.00
2019-05-18T13:19:44.142Z,25.90
2019-05-18T13:22:12.880Z,25.90
2019-05-18T13:24:45.412Z,26.00
2019-05-18T13:27:11.739Z,26.10
2019-05-18T13:29:40.341Z,26.10
2019-05-18T13:32:09.026Z,26.00
2019-05-18T13:34:37.690Z,26.00
2019-05-18T13:37:06.310Z,26.10
2019-05-18T13:39:34.899Z,26.10
2019-05-18T13:42:03.529Z,26.20
2019-05-18T13:44:32.160Z,26.30
2019-05-18T13:47:00.778Z,26.30
2019-05-18T13:49:29.363Z,26.20
2019-05-18T13:51:57.953Z,26.10
2019-05-18T13:54:26.591Z,26.00
2019-05-18T13:56:55.160Z,26.20
2019-05-18T13:59:23.774Z,26.10
2019-05-18T14:01:55.046Z,25.90
2019-05-18T14:04:22.689Z,25.90
2019-05-18T14:06:51.337Z,26.10
2019-05-18T14:09:19.946Z,26.00
2019-05-18T14:11:48.600Z,25.90
2019-05-18T14:14:17.314Z,26.00
2019-05-18T14:16:45.907Z,26.10
2019-05-18T14:19:14.629Z,26.00
2019-05-18T14:21:43.253Z,25.90
2019-05-18T14:24:11.989Z,26.00
2019-05-18T14:26:40.547Z,26.00
2019-05-18T14:29:09.170Z,25.90
2019-05-18T14:31:37.732Z,25.80
2019-05-18T14:34:06.418Z,25.80
2019-05-18T14:36:35.016Z,25.90
2019-05-18T14:39:04.446Z,26.00
2019-05-18T14:41:33.014Z,25.90
2019-05-18T14:44:01.590Z,25.90
2019-05-18T14:46:30.342Z,25.80
2019-05-18T14:48:58.935Z,25.70
2019-05-18T14:51:27.558Z,25.80
2019-05-18T14:53:56.125Z,25.90
2019-05-18T14:56:25.088Z,25.80
2019-05-18T14:58:53.714Z,25.80
2019-05-18T15:01:22.560Z,25.80
2019-05-18T15:03:51.232Z,25.80
2019-05-18T15:06:19.916Z,25.80
2019-05-18T15:08:48.608Z,25.70
2019-05-18T15:11:17.404Z,25.80
2019-05-18T15:13:45.991Z,25.80
2019-05-18T15:16:14.565Z,25.80
2019-05-18T15:18:43.213Z,25.80
2019-05-18T15:21:11.975Z,25.80
2019-05-18T15:23:40.623Z,25.80
2019-05-18T15:26:09.230Z,25.70
2019-05-18T15:28:37.898Z,25.80
2019-05-18T15:31:06.613Z,25.80
2019-05-18T15:33:35.222Z,25.80
2019-05-18T15:36:04.097Z,25.80
2019-05-18T15:38:32.789Z,25.80
2019-05-18T15:41:01.367Z,25.70
2019-05-18T15:43:29.956Z,25.60
2019-05-18T15:45:58.590Z,25.40
2019-05-18T15:48:27.269Z,25.50
2019-05-18T15:50:59.139Z,25.40
2019-05-18T15:53:26.399Z,25.30
2019-05-18T15:56:05.399Z,25.20
2019-05-18T15:58:25.400Z,25.20
2019-05-18T16:00:54.003Z,25.20
2019-05-18T16:03:22.590Z,25.20
2019-05-18T16:05:51.263Z,25.20
2019-05-18T16:08:19.843Z,25.10
2019-05-18T16:10:48.632Z,25.10
2019-05-18T16:13:17.358Z,25.10
2019-05-18T16:15:45.983Z,25.00
2019-05-18T16:18:14.677Z,24.90
2019-05-18T16:20:43.237Z,24.80
2019-05-18T16:23:12.016Z,24.70
2019-05-18T16:25:40.503Z,24.70
2019-05-18T16:28:09.095Z,24.60
2019-05-18T16:30:37.733Z,24.60
2019-05-18T16:33:06.410Z,24.50
2019-05-18T16:35:35.216Z,24.40
2019-05-18T16:38:03.827Z,24.40
2019-05-18T16:40:32.555Z,24.40
2019-05-18T16:43:01.124Z,24.40
2019-05-18T16:45:29.929Z,24.40
2019-05-18T16:47:58.586Z,24.40
2019-05-18T16:50:27.432Z,24.30
2019-05-18T16:52:56.018Z,24.30
2019-05-18T16:55:24.871Z,24.20
2019-05-18T16:57:53.453Z,24.20
2019-05-18T17:00:22.493Z,24.20
2019-05-18T17:02:51.393Z,24.10
2019-05-18T17:05:20.279Z,24.10
2019-05-18T17:07:48.857Z,24.00
2019-05-18T17:10:17.715Z,23.90
2019-05-18T17:12:46.377Z,23.90
2019-05-18T17:15:15.638Z,23.80
2019-05-18T17:17:43.454Z,23.70
2019-05-18T17:20:12.213Z,23.70
2019-05-18T17:22:40.788Z,23.60
2019-05-18T17:25:09.986Z,23.50
2019-05-18T17:27:38.625Z,23.40
2019-05-18T17:30:09.385Z,23.40
2019-05-18T17:32:38.019Z,23.40
2019-05-18T17:35:09.351Z,23.40
2019-05-18T17:37:37.931Z,23.40
2019-05-18T17:40:07.134Z,23.30
2019-05-18T17:42:35.729Z,23.20
2019-05-18T17:45:07.432Z,23.20
2019-05-18T17:47:36.172Z,23.10
2019-05-18T17:50:09.730Z,23.00
2019-05-18T17:52:38.404Z,23.00
2019-05-18T17:55:07.707Z,23.00
2019-05-18T17:57:35.585Z,23.00
2019-05-18T18:00:07.655Z,22.90
2019-05-18T18:02:36.295Z,22.90
2019-05-18T18:05:06.992Z,22.80
2019-05-18T18:07:35.625Z,22.70
2019-05-18T18:10:07.602Z,22.60
2019-05-18T18:12:36.360Z,22.60
2019-05-18T18:15:06.991Z,22.50
2019-05-18T18:17:35.758Z,22.50
2019-05-18T18:20:06.094Z,22.40
2019-05-18T18:22:34.718Z,22.30
2019-05-18T18:25:03.589Z,22.10
2019-05-18T18:27:32.186Z,22.10
2019-05-18T18:30:00.850Z,22.10
2019-05-18T18:32:29.412Z,21.90
2019-05-18T18:34:58.106Z,21.80
2019-05-18T18:37:26.792Z,21.70
2019-05-18T18:39:55.482Z,21.70
2019-05-18T18:42:24.497Z,21.60
2019-05-18T18:44:53.166Z,21.70
2019-05-18T18:47:21.838Z,21.60
2019-05-18T18:49:50.466Z,21.50
2019-05-18T18:52:19.144Z,21.50
2019-05-18T18:54:47.673Z,21.50
2019-05-18T18:57:16.268Z,21.50
2019-05-18T18:59:44.858Z,21.50
2019-05-18T19:02:13.502Z,21.30
2019-05-18T19:04:42.070Z,21.30
2019-05-18T19:07:10.805Z,21.20
2019-05-18T19:09:39.418Z,21.20
2019-05-18T19:12:08.015Z,21.20
2019-05-18T19:14:36.593Z,21.10
2019-05-18T19:17:05.342Z,21.10
2019-05-18T19:19:33.941Z,21.00
2019-05-18T19:22:02.534Z,20.90
2019-05-18T19:24:31.241Z,20.90
2019-05-18T19:26:59.828Z,20.80
2019-05-18T19:29:28.398Z,20.70
2019-05-18T19:31:56.958Z,20.50
2019-05-18T19:34:25.618Z,20.40
2019-05-18T19:36:54.178Z,20.10
2019-05-18T19:39:22.771Z,20.00
2019-05-18T19:41:51.506Z,19.90
2019-05-18T19:44:20.053Z,19.70
2019-05-18T19:46:48.621Z,19.60
2019-05-18T19:49:17.350Z,19.60
2019-05-18T19:51:46.139Z,19.60
2019-05-18T19:54:14.697Z,19.70
2019-05-18T19:56:44.226Z,19.70
2019-05-18T19:59:13.218Z,19.80
2019-05-18T20:01:41.802Z,19.80
2019-05-18T20:04:10.485Z,19.80
2019-05-18T20:06:39.413Z,19.80
2019-05-18T20:09:07.982Z,19.80
2019-05-18T20:11:36.754Z,19.70
2019-05-18T20:14:05.410Z,19.70
2019-05-18T20:16:34.159Z,19.70
2019-05-18T20:19:02.773Z,19.80
2019-05-18T20:21:31.374Z,19.70
2019-05-18T20:23:59.938Z,19.70
2019-05-18T20:26:28.513Z,19.70
2019-05-18T20:28:57.190Z,19.60
2019-05-18T20:31:25.931Z,19.50
2019-05-18T20:33:54.518Z,19.50
2019-05-18T20:36:23.106Z,19.40
2019-05-18T20:38:51.672Z,19.40
2019-05-18T20:41:20.338Z,19.30
2019-05-18T20:43:48.905Z,19.30
2019-05-18T20:46:17.507Z,19.30
2019-05-18T20:48:46.070Z,19.30
2019-05-18T20:51:14.761Z,19.20
2019-05-18T20:53:43.354Z,19.20
2019-05-18T20:56:12.019Z,19.20
2019-05-18T20:58:40.990Z,19.20
2019-05-18T21:01:09.854Z,19.20
2019-05-18T21:03:38.478Z,19.10
2019-05-18T21:06:07.044Z,19.10
2019-05-18T21:08:35.652Z,19.00
2019-05-18T21:11:04.349Z,19.00
2019-05-18T21:13:32.934Z,18.90
2019-05-18T21:16:01.492Z,18.90
2019-05-18T21:18:30.100Z,18.80
2019-05-18T21:20:58.719Z,18.80
2019-05-18T21:23:27.318Z,18.80
2019-05-18T21:25:55.935Z,18.80
2019-05-18T21:28:24.512Z,18.70
2019-05-18T21:30:53.115Z,18.70
2019-05-18T21:33:21.749Z,18.70
2019-05-18T21:35:50.343Z,18.70
2019-05-18T21:38:18.901Z,18.60
2019-05-18T21:40:47.509Z,18.60
2019-05-18T21:43:16.114Z,18.60
2019-05-18T21:45:44.850Z,18.60
2019-05-18T21:48:13.422Z,18.60
2019-05-18T21:50:42.011Z,18.50
2019-05-18T21:53:10.576Z,18.50
2019-05-18T21:55:39.217Z,18.60
2019-05-18T21:58:07.827Z,18.60
2019-05-18T22:00:36.885Z,18.60
2019-05-18T22:03:05.575Z,18.50
2019-05-18T22:05:34.589Z,18.40
2019-05-18T22:08:03.223Z,18.40
2019-05-18T22:10:31.835Z,18.40
2019-05-18T22:13:00.393Z,18.40
2019-05-18T22:15:29.037Z,18.30
2019-05-18T22:18:03.855Z,18.20
2019-05-18T22:20:43.202Z,18.10
2019-05-18T22:23:07.014Z,18.10
2019-05-18T22:25:35.713Z,18.10
2019-05-18T22:28:04.353Z,18.10
2019-05-18T22:30:33.078Z,18.00
2019-05-18T22:33:01.842Z,18.00
2019-05-18T22:35:30.411Z,18.00
2019-05-18T22:37:59.026Z,18.00
2019-05-18T22:40:27.565Z,18.00
2019-05-18T22:42:56.206Z,18.00
2019-05-18T22:45:24.765Z,18.00
2019-05-18T22:47:53.457Z,17.90
2019-05-18T22:50:22.384Z,17.90
2019-05-18T22:52:50.983Z,17.80
2019-05-18T22:55:19.642Z,17.80
2019-05-18T22:57:48.247Z,17.70
2019-05-18T23:00:17.339Z,17.70
2019-05-18T23:02:45.950Z,17.60
2019-05-18T23:05:14.795Z,17.60
2019-05-18T23:07:43.454Z,17.50
2019-05-18T23:10:12.993Z,17.50
2019-05-18T23:12:41.574Z,17.40
2019-05-18T23:15:10.583Z,17.40
2019-05-18T23:17:39.266Z,17.40
2019-05-18T23:20:08.693Z,17.30
2019-05-18T23:22:36.643Z,17.30
2019-05-18T23:25:07.087Z,17.30
2019-05-18T23:27:35.727Z,17.20
2019-05-18T23:30:06.446Z,17.10
2019-05-18T23:32:35.235Z,17.10
2019-05-18T23:35:04.577Z,17.10
2019-05-18T23:37:33.161Z,17.10
2019-05-18T23:40:01.863Z,17.00
2019-05-18T23:42:30.708Z,17.00
2019-05-18T23:44:59.331Z,16.90
2019-05-18T23:47:27.968Z,16.90
2019-05-18T23:49:56.598Z,16.80
2019-05-18T23:52:25.182Z,16.70
2019-05-18T23:54:53.930Z,16.70
2019-05-18T23:57:22.586Z,16.70
2019-05-18T23:59:51.306Z,16.60
